^^
Station Historical Data
Daily Summary for May 10, 2017 Units:  Both    English   Metric
« Previous Day
Next Day »
Daily Weekly Monthly Yearly Custom
  High: Low: Average:
Temperature: 77.9 °F /  25.5 °C 51.8 °F /  11 °C 62.2 °F /  16.8 °C
Dew Point: 54.9 °F /  12.7 °C 45.3 °F /  7.4 °C 48.5 °F /  9.2 °C
Humidity: 80% 37% 63%
Wind Speed: 6.9mph /  11.1km/h - 1mph /  1.6km/h
Wind Gust: 14.0mph /  22.5km/h - -
Wind- - SSW
Pressure: 30.05 in /  1017.5 hPa 29.89 in /  1012.1 hPa -
Precipitation: 0.00 in /  0 mm    
Historical Graphs
 
 
Tabular Data for May 10, 2017
Time Temperature Dew Point Pressure Wind Wind Speed Wind Gust Humidity Rainfall Rate (Hourly) solar Conditions
00:02 57.6 °F /  14.2 °C 47.5 °F /  8.6 °C 29.99in /  1015.5hPa Calm     69% 0.00in /  0mm 0.0 W/m2
00:08 57.6 °F /  14.2 °C 47.8 °F /  8.8 °C 29.99in /  1015.5hPa Calm   1.0mph /  1.6km/h 70% 0.00in /  0mm 0.0 W/m2
00:14 57.4 °F /  14.1 °C 46.9 °F /  8.3 °C 29.99in /  1015.5hPa NE 0.9mph /  1.4km/h 4.0mph /  6.4km/h 68% 0.00in /  0mm 0.0 W/m2
00:20 57.6 °F /  14.2 °C 46.8 °F /  8.2 °C 29.99in /  1015.5hPa Calm   3.0mph /  4.8km/h 67% 0.00in /  0mm 0.0 W/m2
00:26 57.7 °F /  14.3 °C 46.9 °F /  8.3 °C 29.99in /  1015.5hPa ESE 2.0mph /  3.2km/h 3.0mph /  4.8km/h 67% 0.00in /  0mm 0.0 W/m2
00:32 57.7 °F /  14.3 °C 46.9 °F /  8.3 °C 29.99in /  1015.5hPa Calm   1.0mph /  1.6km/h 67% 0.00in /  0mm 0.0 W/m2
00:39 57.7 °F /  14.3 °C 46.9 °F /  8.3 °C 30.00in /  1015.8hPa Calm   1.0mph /  1.6km/h 67% 0.00in /  0mm 0.0 W/m2
00:45 57.4 °F /  14.1 °C 46.9 °F /  8.3 °C 30.00in /  1015.8hPa Calm   2.0mph /  3.2km/h 68% 0.00in /  0mm 0.0 W/m2
00:51 57.2 °F /  14 °C 46.8 °F /  8.2 °C 30.00in /  1015.8hPa Calm   2.0mph /  3.2km/h 68% 0.00in /  0mm 0.0 W/m2
00:57 57.0 °F /  13.9 °C 46.6 °F /  8.1 °C 30.00in /  1015.8hPa Calm   4.0mph /  6.4km/h 68% 0.00in /  0mm 0.0 W/m2
01:03 56.8 °F /  13.8 °C 46.4 °F /  8 °C 29.99in /  1015.5hPa ENE 0.9mph /  1.4km/h 1.0mph /  1.6km/h 68% 0.00in /  0mm 0.0 W/m2
01:09 56.8 °F /  13.8 °C 46.4 °F /  8 °C 29.99in /  1015.5hPa Calm   7.0mph /  11.3km/h 68% 0.00in /  0mm 0.0 W/m2
01:15 57.0 °F /  13.9 °C 46.2 °F /  7.9 °C 29.99in /  1015.5hPa Calm   1.0mph /  1.6km/h 67% 0.00in /  0mm 0.0 W/m2
01:21 57.0 °F /  13.9 °C 46.2 °F /  7.9 °C 29.99in /  1015.5hPa Calm     67% 0.00in /  0mm 0.0 W/m2
01:27 57.4 °F /  14.1 °C 46.0 °F /  7.8 °C 29.98in /  1015.1hPa Calm   4.0mph /  6.4km/h 66% 0.00in /  0mm 0.0 W/m2
01:33 57.4 °F /  14.1 °C 46.0 °F /  7.8 °C 29.98in /  1015.1hPa Calm   3.0mph /  4.8km/h 66% 0.00in /  0mm 0.0 W/m2
01:39 57.6 °F /  14.2 °C 46.2 °F /  7.9 °C 29.98in /  1015.1hPa Calm   3.0mph /  4.8km/h 66% 0.00in /  0mm 0.0 W/m2
01:46 57.7 °F /  14.3 °C 46.4 °F /  8 °C 29.98in /  1015.1hPa ENE 4.0mph /  6.4km/h 4.0mph /  6.4km/h 66% 0.00in /  0mm 0.0 W/m2
01:52 57.9 °F /  14.4 °C 46.2 °F /  7.9 °C 29.98in /  1015.1hPa Calm   6.0mph /  9.7km/h 65% 0.00in /  0mm 0.0 W/m2
01:58 57.9 °F /  14.4 °C 46.6 °F /  8.1 °C 29.98in /  1015.1hPa NE 0.9mph /  1.4km/h 2.0mph /  3.2km/h 66% 0.00in /  0mm 0.0 W/m2
02:04 57.7 °F /  14.3 °C 46.4 °F /  8 °C 29.98in /  1015.1hPa Calm   3.0mph /  4.8km/h 66% 0.00in /  0mm 0.0 W/m2
02:10 57.6 °F /  14.2 °C 46.8 °F /  8.2 °C 29.98in /  1015.1hPa Calm   3.0mph /  4.8km/h 67% 0.00in /  0mm 0.0 W/m2
02:16 57.4 °F /  14.1 °C 46.6 °F /  8.1 °C 29.98in /  1015.1hPa Calm   1.0mph /  1.6km/h 67% 0.00in /  0mm 0.0 W/m2
02:22 57.0 °F /  13.9 °C 46.6 °F /  8.1 °C 29.98in /  1015.1hPa Calm   2.0mph /  3.2km/h 68% 0.00in /  0mm 0.0 W/m2
02:28 56.8 °F /  13.8 °C 46.4 °F /  8 °C 29.97in /  1014.8hPa Calm   2.0mph /  3.2km/h 68% 0.00in /  0mm 0.0 W/m2
02:34 56.7 °F /  13.7 °C 46.6 °F /  8.1 °C 29.97in /  1014.8hPa Calm   3.0mph /  4.8km/h 69% 0.00in /  0mm 0.0 W/m2
02:40 56.5 °F /  13.6 °C 46.4 °F /  8 °C 29.97in /  1014.8hPa Calm   1.0mph /  1.6km/h 69% 0.00in /  0mm 0.0 W/m2
02:47 56.1 °F /  13.4 °C 46.4 °F /  8 °C 29.97in /  1014.8hPa Calm   1.0mph /  1.6km/h 70% 0.00in /  0mm 0.0 W/m2
02:53 55.8 °F /  13.2 °C 46.6 °F /  8.1 °C 29.97in /  1014.8hPa Calm   1.0mph /  1.6km/h 71% 0.00in /  0mm 0.0 W/m2
02:59 55.4 °F /  13 °C 46.2 °F /  7.9 °C 29.96in /  1014.4hPa ENE 2.0mph /  3.2km/h 2.0mph /  3.2km/h 71% 0.00in /  0mm 0.0 W/m2
03:05 55.2 °F /  12.9 °C 46.4 °F /  8 °C 29.96in /  1014.4hPa ENE 0.9mph /  1.4km/h 1.0mph /  1.6km/h 72% 0.00in /  0mm 0.0 W/m2
03:11 54.9 °F /  12.7 °C 46.0 °F /  7.8 °C 29.96in /  1014.4hPa Calm   1.0mph /  1.6km/h 72% 0.00in /  0mm 0.0 W/m2
03:17 54.9 °F /  12.7 °C 46.4 °F /  8 °C 29.96in /  1014.4hPa Calm   1.0mph /  1.6km/h 73% 0.00in /  0mm 0.0 W/m2
03:23 54.7 °F /  12.6 °C 46.2 °F /  7.9 °C 29.96in /  1014.4hPa Calm   1.0mph /  1.6km/h 73% 0.00in /  0mm 0.0 W/m2
03:29 54.3 °F /  12.4 °C 45.9 °F /  7.7 °C 29.96in /  1014.4hPa Calm   3.0mph /  4.8km/h 73% 0.00in /  0mm 0.0 W/m2
03:35 54.1 °F /  12.3 °C 46.0 °F /  7.8 °C 29.96in /  1014.4hPa Calm     74% 0.00in /  0mm 0.0 W/m2
03:41 54.0 °F /  12.2 °C 45.9 °F /  7.7 °C 29.96in /  1014.4hPa Calm   1.0mph /  1.6km/h 74% 0.00in /  0mm 0.0 W/m2
03:48 53.6 °F /  12 °C 45.9 °F /  7.7 °C 29.96in /  1014.4hPa East 0.9mph /  1.4km/h 1.0mph /  1.6km/h 75% 0.00in /  0mm 0.0 W/m2
03:54 53.4 °F /  11.9 °C 45.7 °F /  7.6 °C 29.96in /  1014.4hPa Calm     75% 0.00in /  0mm 0.0 W/m2
04:00 53.2 °F /  11.8 °C 45.9 °F /  7.7 °C 29.96in /  1014.4hPa Calm     76% 0.00in /  0mm 0.0 W/m2
04:06 53.1 °F /  11.7 °C 45.7 °F /  7.6 °C 29.96in /  1014.4hPa Calm     76% 0.00in /  0mm 0.0 W/m2
04:12 52.9 °F /  11.6 °C 45.5 °F /  7.5 °C 29.96in /  1014.4hPa Calm     76% 0.00in /  0mm 0.0 W/m2
04:18 52.5 °F /  11.4 °C 45.5 °F /  7.5 °C 29.96in /  1014.4hPa Calm     77% 0.00in /  0mm 0.0 W/m2
04:24 52.5 °F /  11.4 °C 45.5 °F /  7.5 °C 29.96in /  1014.4hPa Calm     77% 0.00in /  0mm 0.0 W/m2
04:31 52.3 °F /  11.3 °C 45.3 °F /  7.4 °C 29.96in /  1014.4hPa Calm     77% 0.00in /  0mm 0.0 W/m2
04:37 52.2 °F /  11.2 °C 45.5 °F /  7.5 °C 29.96in /  1014.4hPa Calm     78% 0.00in /  0mm 0.0 W/m2
04:43 52.2 °F /  11.2 °C 45.5 °F /  7.5 °C 29.96in /  1014.4hPa Calm     78% 0.00in /  0mm 0.0 W/m2
04:49 52.2 °F /  11.2 °C 45.5 °F /  7.5 °C 29.96in /  1014.4hPa Calm     78% 0.00in /  0mm 0.0 W/m2
04:55 52.0 °F /  11.1 °C 45.3 °F /  7.4 °C 29.96in /  1014.4hPa Calm     78% 0.00in /  0mm 0.0 W/m2
05:01 52.0 °F /  11.1 °C 45.3 °F /  7.4 °C 29.96in /  1014.4hPa Calm     78% 0.00in /  0mm 0.0 W/m2
05:07 52.0 °F /  11.1 °C 45.7 °F /  7.6 °C 29.96in /  1014.4hPa Calm     79% 0.00in /  0mm 0.0 W/m2
05:14 52.0 °F /  11.1 °C 45.7 °F /  7.6 °C 29.96in /  1014.4hPa Calm     79% 0.00in /  0mm 0.0 W/m2
05:20 51.8 °F /  11 °C 45.5 °F /  7.5 °C 29.96in /  1014.4hPa Calm     79% 0.00in /  0mm 0.0 W/m2
05:26 51.8 °F /  11 °C 45.9 °F /  7.7 °C 29.96in /  1014.4hPa Calm     80% 0.00in /  0mm 0.0 W/m2
05:32 52.0 °F /  11.1 °C 46.0 °F /  7.8 °C 29.96in /  1014.4hPa Calm     80% 0.00in /  0mm 0.0 W/m2
05:38 51.8 °F /  11 °C 45.9 °F /  7.7 °C 29.97in /  1014.8hPa Calm     80% 0.00in /  0mm 0.0 W/m2
05:44 51.8 °F /  11 °C 45.9 °F /  7.7 °C 29.97in /  1014.8hPa Calm     80% 0.00in /  0mm 0.0 W/m2
05:51 51.8 °F /  11 °C 45.5 °F /  7.5 °C 29.98in /  1015.1hPa Calm     79% 0.00in /  0mm 0.0 W/m2
05:57 52.0 °F /  11.1 °C 46.0 °F /  7.8 °C 29.98in /  1015.1hPa Calm   1.0mph /  1.6km/h 80% 0.00in /  0mm 0.0 W/m2
06:03 52.0 °F /  11.1 °C 45.7 °F /  7.6 °C 29.98in /  1015.1hPa Calm   2.0mph /  3.2km/h 79% 0.00in /  0mm 0.0 W/m2
06:09 52.0 °F /  11.1 °C 45.7 °F /  7.6 °C 29.98in /  1015.1hPa Calm   2.0mph /  3.2km/h 79% 0.00in /  0mm 0.0 W/m2
06:15 52.0 °F /  11.1 °C 45.7 °F /  7.6 °C 29.98in /  1015.1hPa Calm   1.0mph /  1.6km/h 79% 0.00in /  0mm 0.0 W/m2
06:21 52.2 °F /  11.2 °C 45.9 °F /  7.7 °C 29.98in /  1015.1hPa Calm   2.0mph /  3.2km/h 79% 0.00in /  0mm 5.0 W/m2
06:27 52.3 °F /  11.3 °C 46.0 °F /  7.8 °C 29.98in /  1015.1hPa Calm   2.0mph /  3.2km/h 79% 0.00in /  0mm 9.0 W/m2
06:33 52.5 °F /  11.4 °C 46.2 °F /  7.9 °C 29.98in /  1015.1hPa Calm   2.0mph /  3.2km/h 79% 0.00in /  0mm 12.0 W/m2
06:40 52.7 °F /  11.5 °C 46.0 °F /  7.8 °C 29.99in /  1015.5hPa Calm   3.0mph /  4.8km/h 78% 0.00in /  0mm 14.0 W/m2
06:46 52.9 °F /  11.6 °C 46.2 °F /  7.9 °C 29.99in /  1015.5hPa Calm   1.0mph /  1.6km/h 78% 0.00in /  0mm 16.0 W/m2
06:52 53.1 °F /  11.7 °C 46.0 °F /  7.8 °C 30.00in /  1015.8hPa Calm     77% 0.00in /  0mm 18.0 W/m2
06:58 53.2 °F /  11.8 °C 46.2 °F /  7.9 °C 30.00in /  1015.8hPa Calm     77% 0.00in /  0mm 25.0 W/m2
07:04 53.4 °F /  11.9 °C 46.8 °F /  8.2 °C 30.00in /  1015.8hPa Calm     78% 0.00in /  0mm 33.0 W/m2
07:10 53.6 °F /  12 °C 46.6 °F /  8.1 °C 30.00in /  1015.8hPa Calm   2.0mph /  3.2km/h 77% 0.00in /  0mm 32.0 W/m2
07:16 54.0 °F /  12.2 °C 47.3 °F /  8.5 °C 30.01in /  1016.1hPa Calm   1.0mph /  1.6km/h 78% 0.00in /  0mm 32.0 W/m2
07:22 54.7 °F /  12.6 °C 47.7 °F /  8.7 °C 30.01in /  1016.1hPa Calm     77% 0.00in /  0mm 28.0 W/m2
07:28 55.2 °F /  12.9 °C 47.8 °F /  8.8 °C 30.01in /  1016.1hPa Calm     76% 0.00in /  0mm 26.0 W/m2
07:34 55.6 °F /  13.1 °C 47.8 °F /  8.8 °C 30.01in /  1016.1hPa Calm     75% 0.00in /  0mm 28.0 W/m2
07:40 55.9 °F /  13.3 °C 48.2 °F /  9 °C 30.01in /  1016.1hPa Calm     75% 0.00in /  0mm 28.0 W/m2
07:47 56.5 °F /  13.6 °C 48.7 °F /  9.3 °C 30.01in /  1016.1hPa Calm     75% 0.00in /  0mm 30.0 W/m2
07:53 57.0 °F /  13.9 °C 48.7 °F /  9.3 °C 30.01in /  1016.1hPa Calm     74% 0.00in /  0mm 30.0 W/m2
07:59 57.9 °F /  14.4 °C 48.9 °F /  9.4 °C 30.01in /  1016.1hPa Calm     72% 0.00in /  0mm 32.0 W/m2
08:05 58.8 °F /  14.9 °C 49.5 °F /  9.7 °C 30.02in /  1016.5hPa Calm     71% 0.00in /  0mm 33.0 W/m2
08:11 59.9 °F /  15.5 °C 48.6 °F /  9.2 °C 30.02in /  1016.5hPa Calm     66% 0.00in /  0mm 35.0 W/m2
08:17 61.0 °F /  16.1 °C 48.4 °F /  9.1 °C 30.02in /  1016.5hPa Calm   1.0mph /  1.6km/h 63% 0.00in /  0mm 396.0 W/m2
08:23 62.6 °F /  17 °C 48.6 °F /  9.2 °C 30.02in /  1016.5hPa Calm     60% 0.00in /  0mm 417.0 W/m2
08:29 64.6 °F /  18.1 °C 48.9 °F /  9.4 °C 30.02in /  1016.5hPa NNW 2.0mph /  3.2km/h 4.0mph /  6.4km/h 57% 0.00in /  0mm 439.0 W/m2
08:36 65.7 °F /  18.7 °C 49.1 °F /  9.5 °C 30.02in /  1016.5hPa Calm     55% 0.00in /  0mm 459.0 W/m2
08:42 66.6 °F /  19.2 °C 49.8 °F /  9.9 °C 30.02in /  1016.5hPa Calm   2.0mph /  3.2km/h 55% 0.00in /  0mm 478.0 W/m2
08:48 67.5 °F /  19.7 °C 49.8 °F /  9.9 °C 30.02in /  1016.5hPa NNE 0.9mph /  1.4km/h 1.0mph /  1.6km/h 53% 0.00in /  0mm 496.0 W/m2
08:54 69.1 °F /  20.6 °C 50.2 °F /  10.1 °C 30.02in /  1016.5hPa NNW 0.9mph /  1.4km/h 4.0mph /  6.4km/h 51% 0.00in /  0mm 515.0 W/m2
09:02 70.3 °F /  21.3 °C 50.9 °F /  10.5 °C 30.02in /  1016.5hPa NNW 0.9mph /  1.4km/h 6.0mph /  9.7km/h 50% 0.00in /  0mm 548.0 W/m2
09:08 70.9 °F /  21.6 °C 50.7 °F /  10.4 °C 30.02in /  1016.5hPa Calm   4.0mph /  6.4km/h 49% 0.00in /  0mm 557.0 W/m2
09:15 71.6 °F /  22 °C 51.4 °F /  10.8 °C 30.02in /  1016.5hPa SW 0.9mph /  1.4km/h 3.0mph /  4.8km/h 49% 0.00in /  0mm 587.0 W/m2
09:21 72.1 °F /  22.3 °C 52.0 °F /  11.1 °C 30.01in /  1016.1hPa Calm   6.0mph /  9.7km/h 49% 0.00in /  0mm 599.0 W/m2
09:27 72.3 °F /  22.4 °C 50.9 °F /  10.5 °C 30.02in /  1016.5hPa Calm   7.0mph /  11.3km/h 47% 0.00in /  0mm 606.0 W/m2
09:33 72.9 °F /  22.7 °C 51.4 °F /  10.8 °C 30.01in /  1016.1hPa NW 0.9mph /  1.4km/h 8.0mph /  12.9km/h 47% 0.00in /  0mm 624.0 W/m2
09:39 73.0 °F /  22.8 °C 51.6 °F /  10.9 °C 30.01in /  1016.1hPa North 2.9mph /  4.7km/h 7.0mph /  11.3km/h 47% 0.00in /  0mm 640.0 W/m2
09:45 73.2 °F /  22.9 °C 51.3 °F /  10.7 °C 30.01in /  1016.1hPa NNW 2.9mph /  4.7km/h 8.0mph /  12.9km/h 46% 0.00in /  0mm 645.0 W/m2
09:51 73.2 °F /  22.9 °C 51.8 °F /  11 °C 30.01in /  1016.1hPa NNW 4.0mph /  6.4km/h 5.0mph /  8km/h 47% 0.00in /  0mm 657.0 W/m2
09:58 73.6 °F /  23.1 °C 52.2 °F /  11.2 °C 30.01in /  1016.1hPa Calm   4.0mph /  6.4km/h 47% 0.00in /  0mm 670.0 W/m2
10:04 73.9 °F /  23.3 °C 51.8 °F /  11 °C 30.01in /  1016.1hPa Calm   7.0mph /  11.3km/h 46% 0.00in /  0mm 680.0 W/m2
10:10 74.1 °F /  23.4 °C 52.5 °F /  11.4 °C 30.01in /  1016.1hPa NNW 4.0mph /  6.4km/h 12.0mph /  19.3km/h 47% 0.00in /  0mm 689.0 W/m2
10:16 73.9 °F /  23.3 °C 53.1 °F /  11.7 °C 30.01in /  1016.1hPa WSW 2.0mph /  3.2km/h 8.0mph /  12.9km/h 48% 0.00in /  0mm 708.0 W/m2
10:22 73.9 °F /  23.3 °C 52.5 °F /  11.4 °C 30.01in /  1016.1hPa NNW 4.9mph /  7.9km/h 11.0mph /  17.7km/h 47% 0.00in /  0mm 684.0 W/m2
10:28 73.9 °F /  23.3 °C 53.1 °F /  11.7 °C 30.01in /  1016.1hPa NW 0.9mph /  1.4km/h 7.0mph /  11.3km/h 48% 0.00in /  0mm 719.0 W/m2
10:34 73.9 °F /  23.3 °C 53.1 °F /  11.7 °C 30.00in /  1015.8hPa NW 0.9mph /  1.4km/h 11.0mph /  17.7km/h 48% 0.00in /  0mm 712.0 W/m2
10:41 73.9 °F /  23.3 °C 52.5 °F /  11.4 °C 30.00in /  1015.8hPa NW 4.0mph /  6.4km/h 10.0mph /  16.1km/h 47% 0.00in /  0mm 722.0 W/m2
10:47 73.9 °F /  23.3 °C 52.5 °F /  11.4 °C 29.99in /  1015.5hPa NNW 4.0mph /  6.4km/h 8.0mph /  12.9km/h 47% 0.00in /  0mm 729.0 W/m2
10:51 74.1 °F /  23.4 °C 52.5 °F /  11.4 °C 29.99in /  1015.5hPa NW 4.0mph /  6.4km/h 7.0mph /  11.3km/h 47% 0.00in /  0mm 729.0 W/m2
10:57 74.7 °F /  23.7 °C 52.5 °F /  11.4 °C 29.99in /  1015.5hPa West 6.0mph /  9.7km/h 9.0mph /  14.5km/h 46% 0.00in /  0mm 728.0 W/m2
11:03 74.8 °F /  23.8 °C 52.2 °F /  11.2 °C 29.98in /  1015.1hPa NNE 4.9mph /  7.9km/h 8.0mph /  12.9km/h 45% 0.00in /  0mm 747.0 W/m2
11:09 75.2 °F /  24 °C 53.6 °F /  12 °C 29.98in /  1015.1hPa Calm   1.0mph /  1.6km/h 47% 0.00in /  0mm 756.0 W/m2
11:15 75.6 °F /  24.2 °C 53.2 °F /  11.8 °C 29.98in /  1015.1hPa Calm   5.0mph /  8km/h 46% 0.00in /  0mm 759.0 W/m2
11:21 75.9 °F /  24.4 °C 52.5 °F /  11.4 °C 29.98in /  1015.1hPa NE 4.9mph /  7.9km/h 7.0mph /  11.3km/h 44% 0.00in /  0mm 793.0 W/m2
11:28 76.3 °F /  24.6 °C 53.4 °F /  11.9 °C 29.97in /  1014.8hPa NE 6.0mph /  9.7km/h 7.0mph /  11.3km/h 45% 0.00in /  0mm 821.0 W/m2
11:34 75.9 °F /  24.4 °C 53.1 °F /  11.7 °C 29.97in /  1014.8hPa NNE 4.9mph /  7.9km/h 8.0mph /  12.9km/h 45% 0.00in /  0mm 844.0 W/m2
11:40 75.9 °F /  24.4 °C 51.8 °F /  11 °C 29.97in /  1014.8hPa NNW 2.9mph /  4.7km/h 9.0mph /  14.5km/h 43% 0.00in /  0mm 849.0 W/m2
11:46 76.3 °F /  24.6 °C 52.2 °F /  11.2 °C 29.96in /  1014.4hPa NNW 0.9mph /  1.4km/h 8.0mph /  12.9km/h 43% 0.00in /  0mm 828.0 W/m2
11:52 76.6 °F /  24.8 °C 52.5 °F /  11.4 °C 29.96in /  1014.4hPa Calm   10.0mph /  16.1km/h 43% 0.00in /  0mm 144.0 W/m2
11:58 75.7 °F /  24.3 °C 52.3 °F /  11.3 °C 29.96in /  1014.4hPa NNW 2.0mph /  3.2km/h 6.0mph /  9.7km/h 44% 0.00in /  0mm 884.0 W/m2
12:04 75.9 °F /  24.4 °C 52.5 °F /  11.4 °C 29.96in /  1014.4hPa NW 6.9mph /  11.1km/h 12.0mph /  19.3km/h 44% 0.00in /  0mm 847.0 W/m2
12:11 75.6 °F /  24.2 °C 52.2 °F /  11.2 °C 29.96in /  1014.4hPa NE 4.0mph /  6.4km/h 7.0mph /  11.3km/h 44% 0.00in /  0mm 151.0 W/m2
12:17 75.0 °F /  23.9 °C 52.9 °F /  11.6 °C 29.95in /  1014.1hPa West 6.0mph /  9.7km/h 14.0mph /  22.5km/h 46% 0.00in /  0mm 865.0 W/m2
12:23 75.6 °F /  24.2 °C 53.2 °F /  11.8 °C 29.94in /  1013.8hPa North 4.0mph /  6.4km/h 10.0mph /  16.1km/h 46% 0.00in /  0mm 207.0 W/m2
12:29 75.7 °F /  24.3 °C 52.9 °F /  11.6 °C 29.94in /  1013.8hPa Calm   10.0mph /  16.1km/h 45% 0.00in /  0mm 807.0 W/m2
12:35 75.7 °F /  24.3 °C 52.3 °F /  11.3 °C 29.93in /  1013.4hPa NNE 4.0mph /  6.4km/h 7.0mph /  11.3km/h 44% 0.00in /  0mm 823.0 W/m2
12:41 75.7 °F /  24.3 °C 50.4 °F /  10.2 °C 29.93in /  1013.4hPa SW 0.9mph /  1.4km/h 2.0mph /  3.2km/h 41% 0.00in /  0mm 98.0 W/m2
12:47 75.6 °F /  24.2 °C 51.4 °F /  10.8 °C 29.93in /  1013.4hPa WSW 0.9mph /  1.4km/h 5.0mph /  8km/h 43% 0.00in /  0mm 786.0 W/m2
12:53 75.9 °F /  24.4 °C 52.5 °F /  11.4 °C 29.93in /  1013.4hPa SW 0.9mph /  1.4km/h 5.0mph /  8km/h 44% 0.00in /  0mm 788.0 W/m2
13:00 76.6 °F /  24.8 °C 51.3 °F /  10.7 °C 29.92in /  1013.1hPa NW 2.0mph /  3.2km/h 10.0mph /  16.1km/h 41% 0.00in /  0mm 772.0 W/m2
13:06 77.0 °F /  25 °C 49.5 °F /  9.7 °C 29.92in /  1013.1hPa NNW 2.9mph /  4.7km/h 8.0mph /  12.9km/h 38% 0.00in /  0mm 761.0 W/m2
13:12 77.4 °F /  25.2 °C 49.1 °F /  9.5 °C 29.91in /  1012.8hPa WSW 0.9mph /  1.4km/h 3.0mph /  4.8km/h 37% 0.00in /  0mm 780.0 W/m2
13:18 77.9 °F /  25.5 °C 50.2 °F /  10.1 °C 29.91in /  1012.8hPa West 2.9mph /  4.7km/h 7.0mph /  11.3km/h 38% 0.00in /  0mm 740.0 W/m2
13:24 77.7 °F /  25.4 °C 50.0 °F /  10 °C 29.91in /  1012.8hPa NW 2.0mph /  3.2km/h 7.0mph /  11.3km/h 38% 0.00in /  0mm 782.0 W/m2
13:30 77.2 °F /  25.1 °C 50.4 °F /  10.2 °C 29.91in /  1012.8hPa NNW 4.0mph /  6.4km/h 8.0mph /  12.9km/h 39% 0.00in /  0mm 141.0 W/m2
13:36 75.9 °F /  24.4 °C 47.8 °F /  8.8 °C 29.91in /  1012.8hPa ENE 0.9mph /  1.4km/h 3.0mph /  4.8km/h 37% 0.00in /  0mm 575.0 W/m2
13:42 75.7 °F /  24.3 °C 49.6 °F /  9.8 °C 29.91in /  1012.8hPa North 6.9mph /  11.1km/h 9.0mph /  14.5km/h 40% 0.00in /  0mm 185.0 W/m2
13:48 75.4 °F /  24.1 °C 54.9 °F /  12.7 °C 29.91in /  1012.8hPa West 6.0mph /  9.7km/h 6.0mph /  9.7km/h 49% 0.00in /  0mm 141.0 W/m2
13:55 73.9 °F /  23.3 °C 53.1 °F /  11.7 °C 29.90in /  1012.4hPa Calm   3.0mph /  4.8km/h 48% 0.00in /  0mm 156.0 W/m2
14:01 73.0 °F /  22.8 °C 52.7 °F /  11.5 °C 29.90in /  1012.4hPa Calm     49% 0.00in /  0mm 163.0 W/m2
14:07 72.5 °F /  22.5 °C 49.3 °F /  9.6 °C 29.90in /  1012.4hPa Calm   5.0mph /  8km/h 44% 0.00in /  0mm 181.0 W/m2
14:13 72.3 °F /  22.4 °C 49.1 °F /  9.5 °C 29.90in /  1012.4hPa Calm   5.0mph /  8km/h 44% 0.00in /  0mm 162.0 W/m2
14:19 72.3 °F /  22.4 °C 49.8 °F /  9.9 °C 29.89in /  1012.1hPa Calm   3.0mph /  4.8km/h 45% 0.00in /  0mm 149.0 W/m2
14:25 72.3 °F /  22.4 °C 49.8 °F /  9.9 °C 29.90in /  1012.4hPa West 0.9mph /  1.4km/h 3.0mph /  4.8km/h 45% 0.00in /  0mm 125.0 W/m2
14:31 72.3 °F /  22.4 °C 49.8 °F /  9.9 °C 29.89in /  1012.1hPa Calm   1.0mph /  1.6km/h 45% 0.00in /  0mm 100.0 W/m2
14:38 72.1 °F /  22.3 °C 49.6 °F /  9.8 °C 29.90in /  1012.4hPa Calm   4.0mph /  6.4km/h 45% 0.00in /  0mm 90.0 W/m2
14:44 72.0 °F /  22.2 °C 48.9 °F /  9.4 °C 29.90in /  1012.4hPa NW 2.0mph /  3.2km/h 3.0mph /  4.8km/h 44% 0.00in /  0mm 69.0 W/m2
14:50 72.0 °F /  22.2 °C 46.9 °F /  8.3 °C 29.91in /  1012.8hPa Calm   3.0mph /  4.8km/h 41% 0.00in /  0mm 60.0 W/m2
14:56 71.8 °F /  22.1 °C 46.8 °F /  8.2 °C 29.90in /  1012.4hPa North 2.9mph /  4.7km/h 5.0mph /  8km/h 41% 0.00in /  0mm 47.0 W/m2
15:02 71.4 °F /  21.9 °C 46.6 °F /  8.1 °C 29.90in /  1012.4hPa NNW 4.0mph /  6.4km/h 4.0mph /  6.4km/h 41% 0.00in /  0mm 46.0 W/m2
15:08 71.4 °F /  21.9 °C 47.1 °F /  8.4 °C 29.91in /  1012.8hPa NNE 0.9mph /  1.4km/h 2.0mph /  3.2km/h 42% 0.00in /  0mm 53.0 W/m2
15:14 71.4 °F /  21.9 °C 48.4 °F /  9.1 °C 29.91in /  1012.8hPa NW 0.9mph /  1.4km/h 3.0mph /  4.8km/h 44% 0.00in /  0mm 54.0 W/m2
15:20 71.2 °F /  21.8 °C 49.5 °F /  9.7 °C 29.91in /  1012.8hPa NE 2.9mph /  4.7km/h 7.0mph /  11.3km/h 46% 0.00in /  0mm 53.0 W/m2
15:27 71.1 °F /  21.7 °C 48.6 °F /  9.2 °C 29.91in /  1012.8hPa NNW 2.0mph /  3.2km/h 7.0mph /  11.3km/h 45% 0.00in /  0mm 49.0 W/m2
15:33 70.7 °F /  21.5 °C 48.4 °F /  9.1 °C 29.91in /  1012.8hPa NW 0.9mph /  1.4km/h 5.0mph /  8km/h 45% 0.00in /  0mm 46.0 W/m2
15:39 70.5 °F /  21.4 °C 48.2 °F /  9 °C 29.91in /  1012.8hPa NNW 0.9mph /  1.4km/h 4.0mph /  6.4km/h 45% 0.00in /  0mm 46.0 W/m2
15:45 70.5 °F /  21.4 °C 47.5 °F /  8.6 °C 29.91in /  1012.8hPa North 2.9mph /  4.7km/h 5.0mph /  8km/h 44% 0.00in /  0mm 47.0 W/m2
15:51 70.3 °F /  21.3 °C 47.5 °F /  8.6 °C 29.92in /  1013.1hPa NNW 0.9mph /  1.4km/h 6.0mph /  9.7km/h 44% 0.00in /  0mm 49.0 W/m2
15:57 70.3 °F /  21.3 °C 46.8 °F /  8.2 °C 29.92in /  1013.1hPa NNE 2.9mph /  4.7km/h 4.0mph /  6.4km/h 43% 0.00in /  0mm 37.0 W/m2
16:03 70.3 °F /  21.3 °C 46.8 °F /  8.2 °C 29.92in /  1013.1hPa Calm   3.0mph /  4.8km/h 43% 0.00in /  0mm 32.0 W/m2
16:10 70.2 °F /  21.2 °C 50.7 °F /  10.4 °C 29.93in /  1013.4hPa NNW 4.0mph /  6.4km/h 6.0mph /  9.7km/h 50% 0.00in /  0mm 37.0 W/m2
16:16 69.3 °F /  20.7 °C 52.0 °F /  11.1 °C 29.94in /  1013.8hPa NNW 6.9mph /  11.1km/h 10.0mph /  16.1km/h 54% 0.00in /  0mm 40.0 W/m2
16:22 67.6 °F /  19.8 °C 52.9 °F /  11.6 °C 29.94in /  1013.8hPa NNE 6.9mph /  11.1km/h 7.0mph /  11.3km/h 59% 0.00in /  0mm 42.0 W/m2
16:28 66.4 °F /  19.1 °C 52.5 °F /  11.4 °C 29.93in /  1013.4hPa NNW 2.9mph /  4.7km/h 8.0mph /  12.9km/h 61% 0.00in /  0mm 47.0 W/m2
16:34 65.1 °F /  18.4 °C 53.1 °F /  11.7 °C 29.94in /  1013.8hPa NNE 4.0mph /  6.4km/h 12.0mph /  19.3km/h 65% 0.00in /  0mm 58.0 W/m2
16:40 64.2 °F /  17.9 °C 52.2 °F /  11.2 °C 29.95in /  1014.1hPa NNW 4.0mph /  6.4km/h 9.0mph /  14.5km/h 65% 0.00in /  0mm 47.0 W/m2
16:46 63.7 °F /  17.6 °C 52.2 °F /  11.2 °C 29.95in /  1014.1hPa NW 2.9mph /  4.7km/h 11.0mph /  17.7km/h 66% 0.00in /  0mm 35.0 W/m2
16:52 63.3 °F /  17.4 °C 51.4 °F /  10.8 °C 29.95in /  1014.1hPa NE 0.9mph /  1.4km/h 6.0mph /  9.7km/h 65% 0.00in /  0mm 32.0 W/m2
16:58 63.1 °F /  17.3 °C 50.7 °F /  10.4 °C 29.96in /  1014.4hPa North 0.9mph /  1.4km/h 4.0mph /  6.4km/h 64% 0.00in /  0mm 21.0 W/m2
17:05 63.1 °F /  17.3 °C 51.3 °F /  10.7 °C 29.97in /  1014.8hPa Calm   3.0mph /  4.8km/h 65% 0.00in /  0mm 19.0 W/m2
17:11 63.0 °F /  17.2 °C 51.1 °F /  10.6 °C 29.97in /  1014.8hPa Calm   4.0mph /  6.4km/h 65% 0.00in /  0mm 14.0 W/m2
17:17 62.8 °F /  17.1 °C 51.3 °F /  10.7 °C 29.97in /  1014.8hPa ESE 0.9mph /  1.4km/h 4.0mph /  6.4km/h 66% 0.00in /  0mm 7.0 W/m2
17:23 62.6 °F /  17 °C 51.4 °F /  10.8 °C 29.97in /  1014.8hPa Calm     67% 0.00in /  0mm 5.0 W/m2
17:29 62.2 °F /  16.8 °C 51.1 °F /  10.6 °C 29.97in /  1014.8hPa Calm     67% 0.00in /  0mm 0.0 W/m2
17:35 62.1 °F /  16.7 °C 50.9 °F /  10.5 °C 29.98in /  1015.1hPa Calm     67% 0.00in /  0mm 0.0 W/m2
17:41 61.9 °F /  16.6 °C 50.7 °F /  10.4 °C 29.98in /  1015.1hPa Calm     67% 0.00in /  0mm 0.0 W/m2
17:48 61.5 °F /  16.4 °C 50.5 °F /  10.3 °C 29.98in /  1015.1hPa NNE 0.9mph /  1.4km/h 4.0mph /  6.4km/h 67% 0.00in /  0mm 0.0 W/m2
17:54 61.2 °F /  16.2 °C 50.2 °F /  10.1 °C 29.98in /  1015.1hPa Calm   1.0mph /  1.6km/h 67% 0.00in /  0mm 0.0 W/m2
18:00 61.0 °F /  16.1 °C 50.0 °F /  10 °C 29.98in /  1015.1hPa Calm     67% 0.00in /  0mm 0.0 W/m2
18:06 60.6 °F /  15.9 °C 49.6 °F /  9.8 °C 29.98in /  1015.1hPa Calm   1.0mph /  1.6km/h 67% 0.00in /  0mm 0.0 W/m2
18:12 60.4 °F /  15.8 °C 49.5 °F /  9.7 °C 29.98in /  1015.1hPa Calm     67% 0.00in /  0mm 0.0 W/m2
18:18 60.3 °F /  15.7 °C 49.6 °F /  9.8 °C 29.99in /  1015.5hPa Calm   2.0mph /  3.2km/h 68% 0.00in /  0mm 0.0 W/m2
18:24 60.1 °F /  15.6 °C 49.5 °F /  9.7 °C 29.99in /  1015.5hPa Calm     68% 0.00in /  0mm 0.0 W/m2
18:31 59.9 °F /  15.5 °C 49.3 °F /  9.6 °C 29.99in /  1015.5hPa Calm     68% 0.00in /  0mm 0.0 W/m2
18:37 59.5 °F /  15.3 °C 49.3 °F /  9.6 °C 29.99in /  1015.5hPa Calm     69% 0.00in /  0mm 0.0 W/m2
18:44 59.2 °F /  15.1 °C 49.5 °F /  9.7 °C 29.99in /  1015.5hPa Calm     70% 0.00in /  0mm 0.0 W/m2
18:51 58.6 °F /  14.8 °C 48.9 °F /  9.4 °C 29.99in /  1015.5hPa Calm     70% 0.00in /  0mm 0.0 W/m2
18:57 58.5 °F /  14.7 °C 48.7 °F /  9.3 °C 29.99in /  1015.5hPa Calm     70% 0.00in /  0mm 0.0 W/m2
19:03 58.3 °F /  14.6 °C 48.9 °F /  9.4 °C 29.99in /  1015.5hPa Calm     71% 0.00in /  0mm 0.0 W/m2
19:10 57.9 °F /  14.4 °C 48.6 °F /  9.2 °C 29.99in /  1015.5hPa Calm     71% 0.00in /  0mm 0.0 W/m2
19:16 57.7 °F /  14.3 °C 48.7 °F /  9.3 °C 29.99in /  1015.5hPa Calm     72% 0.00in /  0mm 0.0 W/m2
19:22 57.4 °F /  14.1 °C 48.4 °F /  9.1 °C 30.00in /  1015.8hPa Calm     72% 0.00in /  0mm 0.0 W/m2
19:28 57.0 °F /  13.9 °C 48.0 °F /  8.9 °C 30.00in /  1015.8hPa Calm     72% 0.00in /  0mm 0.0 W/m2
19:34 56.7 °F /  13.7 °C 48.0 °F /  8.9 °C 30.00in /  1015.8hPa Calm     73% 0.00in /  0mm 0.0 W/m2
19:40 56.5 °F /  13.6 °C 48.0 °F /  8.9 °C 30.00in /  1015.8hPa Calm     73% 0.00in /  0mm 0.0 W/m2
19:47 56.1 °F /  13.4 °C 47.7 °F /  8.7 °C 30.00in /  1015.8hPa Calm     73% 0.00in /  0mm 0.0 W/m2
19:53 55.9 °F /  13.3 °C 47.5 °F /  8.6 °C 30.00in /  1015.8hPa Calm   1.0mph /  1.6km/h 73% 0.00in /  0mm 0.0 W/m2
19:59 55.8 °F /  13.2 °C 47.3 °F /  8.5 °C 30.01in /  1016.1hPa Calm     73% 0.00in /  0mm 0.0 W/m2
20:05 55.8 °F /  13.2 °C 47.3 °F /  8.5 °C 30.01in /  1016.1hPa Calm     73% 0.00in /  0mm 0.0 W/m2
20:11 55.6 °F /  13.1 °C 47.1 °F /  8.4 °C 30.01in /  1016.1hPa Calm     73% 0.00in /  0mm 0.0 W/m2
20:17 55.2 °F /  12.9 °C 46.8 °F /  8.2 °C 30.01in /  1016.1hPa Calm     73% 0.00in /  0mm 0.0 W/m2
20:23 55.2 °F /  12.9 °C 46.8 °F /  8.2 °C 30.02in /  1016.5hPa Calm   1.0mph /  1.6km/h 73% 0.00in /  0mm 0.0 W/m2
20:30 55.2 °F /  12.9 °C 46.4 °F /  8 °C 30.03in /  1016.8hPa ENE 0.9mph /  1.4km/h 6.0mph /  9.7km/h 72% 0.00in /  0mm 0.0 W/m2
20:36 55.2 °F /  12.9 °C 46.4 °F /  8 °C 30.03in /  1016.8hPa NNE 0.9mph /  1.4km/h 2.0mph /  3.2km/h 72% 0.00in /  0mm 0.0 W/m2
20:42 55.6 °F /  13.1 °C 46.8 °F /  8.2 °C 30.03in /  1016.8hPa NNE 2.9mph /  4.7km/h 7.0mph /  11.3km/h 72% 0.00in /  0mm 0.0 W/m2
20:48 55.8 °F /  13.2 °C 46.9 °F /  8.3 °C 30.03in /  1016.8hPa East 2.0mph /  3.2km/h 6.0mph /  9.7km/h 72% 0.00in /  0mm 0.0 W/m2
20:54 56.1 °F /  13.4 °C 46.8 °F /  8.2 °C 30.03in /  1016.8hPa Calm   4.0mph /  6.4km/h 71% 0.00in /  0mm 0.0 W/m2
21:00 56.1 °F /  13.4 °C 46.8 °F /  8.2 °C 30.04in /  1017.2hPa ENE 2.9mph /  4.7km/h 4.0mph /  6.4km/h 71% 0.00in /  0mm 0.0 W/m2
21:07 56.3 °F /  13.5 °C 47.5 °F /  8.6 °C 30.04in /  1017.2hPa NNE 2.9mph /  4.7km/h 6.0mph /  9.7km/h 72% 0.00in /  0mm 0.0 W/m2
21:13 56.5 °F /  13.6 °C 47.5 °F /  8.6 °C 30.04in /  1017.2hPa Calm   5.0mph /  8km/h 72% 0.00in /  0mm 0.0 W/m2
21:19 56.5 °F /  13.6 °C 47.5 °F /  8.6 °C 30.04in /  1017.2hPa NNE 4.9mph /  7.9km/h 7.0mph /  11.3km/h 72% 0.00in /  0mm 0.0 W/m2
21:25 56.7 °F /  13.7 °C 47.7 °F /  8.7 °C 30.04in /  1017.2hPa Calm   2.0mph /  3.2km/h 72% 0.00in /  0mm 0.0 W/m2
21:31 56.8 °F /  13.8 °C 47.8 °F /  8.8 °C 30.04in /  1017.2hPa Calm     72% 0.00in /  0mm 0.0 W/m2
21:37 56.8 °F /  13.8 °C 47.8 °F /  8.8 °C 30.05in /  1017.5hPa Calm   1.0mph /  1.6km/h 72% 0.00in /  0mm 0.0 W/m2
21:43 56.8 °F /  13.8 °C 47.8 °F /  8.8 °C 30.04in /  1017.2hPa Calm   2.0mph /  3.2km/h 72% 0.00in /  0mm 0.0 W/m2
21:49 56.8 °F /  13.8 °C 47.5 °F /  8.6 °C 30.04in /  1017.2hPa East 0.9mph /  1.4km/h 2.0mph /  3.2km/h 71% 0.00in /  0mm 0.0 W/m2
21:56 56.8 °F /  13.8 °C 47.5 °F /  8.6 °C 30.04in /  1017.2hPa Calm   1.0mph /  1.6km/h 71% 0.00in /  0mm 0.0 W/m2
22:02 56.8 °F /  13.8 °C 47.5 °F /  8.6 °C 30.04in /  1017.2hPa Calm   2.0mph /  3.2km/h 71% 0.00in /  0mm 0.0 W/m2
22:08 56.8 °F /  13.8 °C 47.5 °F /  8.6 °C 30.04in /  1017.2hPa Calm     71% 0.00in /  0mm 0.0 W/m2
22:14 57.0 °F /  13.9 °C 47.7 °F /  8.7 °C 30.04in /  1017.2hPa Calm   4.0mph /  6.4km/h 71% 0.00in /  0mm 0.0 W/m2
22:20 57.0 °F /  13.9 °C 47.7 °F /  8.7 °C 30.04in /  1017.2hPa NE 2.0mph /  3.2km/h 5.0mph /  8km/h 71% 0.00in /  0mm 0.0 W/m2
22:26 57.4 °F /  14.1 °C 48.0 °F /  8.9 °C 30.05in /  1017.5hPa NE 2.9mph /  4.7km/h 6.0mph /  9.7km/h 71% 0.00in /  0mm 0.0 W/m2
22:32 57.6 °F /  14.2 °C 47.8 °F /  8.8 °C 30.05in /  1017.5hPa Calm   4.0mph /  6.4km/h 70% 0.00in /  0mm 0.0 W/m2
22:39 57.7 °F /  14.3 °C 47.7 °F /  8.7 °C 30.05in /  1017.5hPa SE 2.9mph /  4.7km/h 5.0mph /  8km/h 69% 0.00in /  0mm 0.0 W/m2
22:45 57.9 °F /  14.4 °C 47.5 °F /  8.6 °C 30.05in /  1017.5hPa Calm   7.0mph /  11.3km/h 68% 0.00in /  0mm 0.0 W/m2
22:51 58.3 °F /  14.6 °C 47.8 °F /  8.8 °C 30.05in /  1017.5hPa SE 0.9mph /  1.4km/h 6.0mph /  9.7km/h 68% 0.00in /  0mm 0.0 W/m2
22:57 58.5 °F /  14.7 °C 47.1 °F /  8.4 °C 30.04in /  1017.2hPa East 6.9mph /  11.1km/h 7.0mph /  11.3km/h 66% 0.00in /  0mm 0.0 W/m2
23:03 58.5 °F /  14.7 °C 47.1 °F /  8.4 °C 30.04in /  1017.2hPa Calm   6.0mph /  9.7km/h 66% 0.00in /  0mm 0.0 W/m2
23:09 58.3 °F /  14.6 °C 46.6 °F /  8.1 °C 30.04in /  1017.2hPa Calm   4.0mph /  6.4km/h 65% 0.00in /  0mm 0.0 W/m2
23:15 58.3 °F /  14.6 °C 46.6 °F /  8.1 °C 30.04in /  1017.2hPa Calm   3.0mph /  4.8km/h 65% 0.00in /  0mm 0.0 W/m2
23:21 58.3 °F /  14.6 °C 46.6 °F /  8.1 °C 30.04in /  1017.2hPa Calm   5.0mph /  8km/h 65% 0.00in /  0mm 0.0 W/m2
23:27 58.1 °F /  14.5 °C 46.4 °F /  8 °C 30.04in /  1017.2hPa Calm   4.0mph /  6.4km/h 65% 0.00in /  0mm 0.0 W/m2
23:33 57.9 °F /  14.4 °C 46.2 °F /  7.9 °C 30.04in /  1017.2hPa SE 0.9mph /  1.4km/h 1.0mph /  1.6km/h 65% 0.00in /  0mm 0.0 W/m2
23:39 57.9 °F /  14.4 °C 45.9 °F /  7.7 °C 30.03in /  1016.8hPa Calm   4.0mph /  6.4km/h 64% 0.00in /  0mm 0.0 W/m2
23:45 57.7 °F /  14.3 °C 45.7 °F /  7.6 °C 30.03in /  1016.8hPa Calm   2.0mph /  3.2km/h 64% 0.00in /  0mm 0.0 W/m2
23:51 57.6 °F /  14.2 °C 45.5 °F /  7.5 °C 30.03in /  1016.8hPa Calm   2.0mph /  3.2km/h 64% 0.00in /  0mm 0.0 W/m2
23:57 57.6 °F /  14.2 °C 45.5 °F /  7.5 °C 30.03in /  1016.8hPa Calm   2.0mph /  3.2km/h 64% 0.00in /  0mm 0.0 W/m2
Olympia, Windhoek, Namibia
Compliments of Weather Underground - 3 mb